Terminal Aerodrome Forecast
Issued by NWS

Home | Current Version | Previous Version | Graphics & Text | Print | Product List | Glossary On
Versions: 1 2 3 4 5 6 7 8 9 10 11 12 13 14 15 16
061
FTUS43 KICT 280428 AAA
TAFRSL
TAF AMD
KRSL 280428Z 2804/2824 08016G23KT P6SM VCTS SCT020 OVC040CB
      TEMPO 2805/2807 VRB20G35KT 2SM +TSRA OVC020CB
     FM280800 11012KT P6SM VCSH OVC010
     FM281000 12010KT 4SM BR OVC006
     FM281200 VRB04KT 2SM BR OVC004
     FM281500 VRB04KT P6SM BKN016
     FM281900 36007KT P6SM SCT025
     FM282100 02011KT P6SM OVC030=

USA.gov is the U.S. government's official web portal to all federal, state and local government web resources and services.